TAF Text Data
IDs:
Format:
Raw Decoded Include METAR

Data at: 0244 UTC 15 Aug 2020

KDVN 150152Z AUTO 16003KT 10SM CLR 21/18 A2999 RMK AO2 SLP147 T02110183


KMLI 150152Z 00000KT 10SM CLR 22/19 A2997 RMK AO2 SLP143 T02220194

KMLI 142339Z 1500/1524 13006KT P6SM BKN250
  FM150800 18006KT P6SM BKN150
  FM151200 32009KT P6SM BKN060
  FM151700 34012G18KT P6SM SCT040